Terminal Aerodrome Forecast
Issued by NWS

Home | Current Version | Previous Version | Text Only | Print | Product List | Glossary On
Versions: 1 2 3 4 5 6 7 8 9 10 11 12 13 14 15 16 17
000
FTUS42 KJAX 302344
TAFCRG
TAF
KCRG 302344Z 3100/3124 15008KT P6SM FEW050 SCT250
     FM310200 19004KT P6SM FEW050 SCT250
     FM311600 29006KT P6SM SCT050 SCT250
     FM311900 13010KT P6SM SCT050 SCT250=

USA.gov is the U.S. government's official web portal to all federal, state and local government web resources and services.